Time;durP1;ratioP1;P1;durP2;ratioP2;P2;SDS_P1;SDS_P2;PMS_P1;PMS_P2;Temp;Humidity;BMP_temperature;BMP_pressure;BME280_temperature;BME280_humidity;BME280_pressure;Samples;Min_cycle;Max_cycle;Signal;HPM_P1;HPM_P2
2022/10/03 00:00:17;;;;;;;9.13;2.03;;;9.40;99.90;;;;;;5054494;28;20048;-80
2022/10/03 00:03:28;;;;;;;7.43;2.13;;;9.30;99.90;;;;;;5054124;28;20045;-80
2022/10/03 00:06:08;;;;;;;13.57;2.20;;;9.30;99.90;;;;;;5054656;28;20083;-80
2022/10/03 00:08:42;;;;;;;7.80;1.67;;;9.30;99.90;;;;;;5054313;28;20106;-80
2022/10/03 00:11:35;;;;;;;8.15;1.80;;;9.20;99.90;;;;;;5054152;28;20041;-80
2022/10/03 00:14:19;;;;;;;12.30;2.22;;;9.20;99.90;;;;;;5054234;28;20124;-80
2022/10/03 00:17:22;;;;;;;6.07;1.58;;;9.20;99.90;;;;;;5054538;28;20045;-80
2022/10/03 00:20:25;;;;;;;9.48;2.25;;;9.20;99.90;;;;;;5054007;28;20083;-80
2022/10/03 00:23:07;;;;;;;9.73;2.28;;;9.10;99.90;;;;;;5043388;28;20057;-80
2022/10/03 00:25:45;;;;;;;10.45;2.50;;;9.10;99.90;;;;;;5054018;28;20048;-80
2022/10/03 00:29:01;;;;;;;6.72;1.73;;;9.10;99.90;;;;;;5053850;28;20056;-80
2022/10/03 00:32:00;;;;;;;9.23;2.22;;;9.10;99.90;;;;;;5053998;28;20091;-80
2022/10/03 00:34:36;;;;;;;12.60;2.38;;;9.00;99.90;;;;;;5052832;28;20573;-80
2022/10/03 00:37:15;;;;;;;11.05;2.22;;;9.00;99.90;;;;;;5053832;28;20135;-80
2022/10/03 00:40:25;;;;;;;13.57;2.10;;;9.00;99.90;;;;;;5053516;28;20449;-80
2022/10/03 00:43:19;;;;;;;12.65;2.25;;;9.00;99.90;;;;;;5041266;28;20133;-80
2022/10/03 00:46:13;;;;;;;11.20;1.98;;;9.00;99.90;;;;;;5053613;28;20106;-80
2022/10/03 00:49:04;;;;;;;11.57;2.63;;;9.00;99.90;;;;;;5053702;28;20468;-80
2022/10/03 00:51:46;;;;;;;12.05;2.35;;;8.90;99.90;;;;;;5050470;28;20053;-80
2022/10/03 00:54:51;;;;;;;19.08;2.80;;;8.90;99.90;;;;;;5053586;28;20045;-80
2022/10/03 00:57:42;;;;;;;8.05;1.60;;;8.90;99.90;;;;;;5042459;28;20057;-80
2022/10/03 01:00:20;;;;;;;8.65;1.92;;;8.90;99.90;;;;;;5053926;28;20045;-80
2022/10/03 01:02:52;;;;;;;6.78;1.80;;;8.90;99.90;;;;;;5053249;28;20477;-80
2022/10/03 01:05:39;;;;;;;8.95;1.98;;;8.80;99.90;;;;;;5053526;28;20049;-80
2022/10/03 01:08:33;;;;;;;11.13;1.93;;;8.80;99.90;;;;;;5053493;28;20056;-80
2022/10/03 01:11:11;;;;;;;10.00;1.83;;;8.80;99.90;;;;;;5053684;28;20129;-80
2022/10/03 01:13:43;;;;;;;9.93;1.92;;;8.80;99.90;;;;;;5053445;28;20041;-80
2022/10/03 01:16:28;;;;;;;9.18;2.10;;;8.80;99.90;;;;;;5055437;28;20045;-80
2022/10/03 01:19:04;;;;;;;9.27;2.03;;;8.80;99.90;;;;;;5057781;28;20049;-80
2022/10/03 01:22:07;;;;;;;11.65;1.98;;;8.70;99.90;;;;;;5073265;28;20056;-80
2022/10/03 01:24:58;;;;;;;9.68;2.05;;;8.70;99.90;;;;;;5057261;28;20048;-80
2022/10/03 01:30:39;;;;;;;11.85;2.45;;;8.70;99.90;;;;;;5057121;28;20056;-80
2022/10/03 01:33:30;;;;;;;10.95;2.15;;;8.70;99.90;;;;;;5056494;28;20657;-80
2022/10/03 01:36:07;;;;;;;10.82;2.28;;;8.60;99.90;;;;;;5057038;28;20052;-80
2022/10/03 01:38:53;;;;;;;14.07;2.05;;;8.60;99.90;;;;;;5057258;28;20045;-80
2022/10/03 01:41:44;;;;;;;6.78;1.98;;;8.60;99.90;;;;;;5056922;28;20423;-80
2022/10/03 01:44:42;;;;;;;8.40;2.03;;;8.60;99.90;;;;;;5055863;28;20048;-80
2022/10/03 01:47:21;;;;;;;8.38;2.08;;;8.50;99.90;;;;;;5044639;28;20111;-80
2022/10/03 01:50:18;;;;;;;6.78;1.90;;;8.50;99.90;;;;;;5057316;28;20049;-80
2022/10/03 01:52:55;;;;;;;9.10;2.40;;;8.50;99.90;;;;;;5056894;28;20044;-80
2022/10/03 01:55:33;;;;;;;10.80;2.40;;;8.50;99.90;;;;;;5056784;28;20056;-80
2022/10/03 01:58:08;;;;;;;10.02;2.10;;;8.50;99.90;;;;;;5056608;28;20045;-79
2022/10/03 02:00:49;;;;;;;10.00;2.08;;;8.50;99.90;;;;;;5056809;28;20488;-80
2022/10/03 02:03:29;;;;;;;6.55;1.77;;;8.50;99.90;;;;;;5055986;28;20040;-80
2022/10/03 02:06:32;;;;;;;10.90;2.10;;;8.60;99.90;;;;;;5056775;28;20045;-80
2022/10/03 02:09:09;;;;;;;8.60;2.00;;;8.50;99.90;;;;;;5056536;28;20056;-80
2022/10/03 02:11:56;;;;;;;;;;;8.40;99.90;;;;;;5055790;28;20086;-80
2022/10/03 02:14:33;;;;;;;13.43;1.98;;;8.50;99.90;;;;;;5056384;28;19960;-80
2022/10/03 02:17:02;;;;;;;11.32;1.98;;;8.50;99.90;;;;;;5055461;28;20473;-80
2022/10/03 02:19:56;;;;;;;8.63;2.00;;;8.50;99.90;;;;;;5056254;28;20041;-80
2022/10/03 02:22:29;;;;;;;12.27;2.15;;;8.40;99.90;;;;;;5056381;28;20431;-79
2022/10/03 02:25:35;;;;;;;10.68;2.55;;;8.60;99.90;;;;;;5055463;28;20041;-80
2022/10/03 02:28:43;;;;;;;9.40;1.63;;;8.40;99.90;;;;;;5052706;28;20049;-79
2022/10/03 02:31:31;;;;;;;12.40;2.53;;;8.40;99.90;;;;;;5056220;28;20068;-80
2022/10/03 02:34:08;;;;;;;8.57;1.40;;;8.40;99.90;;;;;;5055358;28;20540;-80
2022/10/03 02:37:10;;;;;;;10.70;1.85;;;8.40;99.90;;;;;;5056135;28;20060;-80
2022/10/03 02:39:55;;;;;;;7.38;2.30;;;8.30;99.90;;;;;;5071743;28;20100;-80
2022/10/03 02:42:23;;;;;;;10.32;2.22;;;8.20;99.90;;;;;;5056507;28;20064;-80
2022/10/03 02:45:21;;;;;;;12.32;2.17;;;8.30;99.90;;;;;;5071640;28;20093;-80
2022/10/03 02:48:24;;;;;;;8.10;2.40;;;8.20;99.90;;;;;;5055923;28;20048;-80
2022/10/03 02:51:16;;;;;;;7.40;1.70;;;8.30;99.90;;;;;;5056076;28;20514;-80
2022/10/03 02:54:02;;;;;;;14.07;1.95;;;8.30;99.90;;;;;;5055899;28;20396;-80
2022/10/03 02:56:46;;;;;;;9.65;2.22;;;8.20;99.90;;;;;;5055726;28;20056;-80
2022/10/03 02:59:46;;;;;;;10.98;2.22;;;8.20;99.90;;;;;;5071243;28;20051;-80
2022/10/03 03:02:26;;;;;;;11.30;3.17;;;8.20;99.90;;;;;;5054782;28;20075;-80
2022/10/03 03:05:29;;;;;;;13.15;2.42;;;8.30;99.90;;;;;;5055521;28;20083;-80
2022/10/03 03:08:13;;;;;;;12.93;2.25;;;8.20;99.90;;;;;;5055495;28;20051;-80
2022/10/03 03:10:59;;;;;;;9.65;1.90;;;8.20;99.90;;;;;;5055468;28;20063;-80
2022/10/03 03:13:44;;;;;;;5.75;1.98;;;8.20;99.90;;;;;;5055338;28;20128;-80
2022/10/03 03:16:44;;;;;;;13.70;2.20;;;8.20;99.90;;;;;;5055647;28;20044;-80
2022/10/03 03:19:43;;;;;;;10.68;2.15;;;8.20;99.90;;;;;;5071136;28;20060;-80
2022/10/03 03:22:33;;;;;;;9.65;2.63;;;8.20;99.90;;;;;;5055167;28;20041;-80
2022/10/03 03:25:38;;;;;;;8.98;2.15;;;8.20;99.90;;;;;;5055123;28;20052;-80
2022/10/03 03:28:35;;;;;;;8.65;2.17;;;8.20;99.90;;;;;;5054240;28;20045;-80
2022/10/03 03:31:07;;;;;;;13.15;2.58;;;8.20;99.90;;;;;;5054949;28;20495;-80
2022/10/03 03:33:54;;;;;;;7.28;2.20;;;8.20;99.90;;;;;;5054278;28;20480;-80
2022/10/03 03:37:04;;;;;;;12.02;2.63;;;8.20;99.90;;;;;;5054622;28;20497;-80
2022/10/03 03:40:06;;;;;;;11.38;2.17;;;8.20;99.90;;;;;;5049046;28;20435;-80
2022/10/03 03:42:53;;;;;;;12.57;2.38;;;8.10;99.90;;;;;;5052988;28;20053;-80
2022/10/03 03:45:43;;;;;;;8.40;1.83;;;8.10;99.90;;;;;;5055012;28;20400;-80
2022/10/03 03:48:42;;;;;;;9.35;2.13;;;8.00;99.90;;;;;;5054753;28;20052;-80
2022/10/03 03:51:33;;;;;;;6.88;1.50;;;8.00;99.90;;;;;;5053424;28;20392;-80
2022/10/03 03:54:11;;;;;;;9.55;2.22;;;8.00;99.90;;;;;;5051349;28;20139;-80
2022/10/03 03:57:01;;;;;;;7.70;1.52;;;7.90;99.90;;;;;;5054573;28;20045;-80
2022/10/03 04:00:06;;;;;;;7.10;2.05;;;7.90;99.90;;;;;;5054212;28;20572;-80
2022/10/03 04:02:46;;;;;;;7.93;2.13;;;7.90;99.90;;;;;;5054276;28;20163;-80
2022/10/03 04:05:49;;;;;;;12.68;2.20;;;7.90;99.90;;;;;;5054246;28;20128;-80
2022/10/03 04:08:33;;;;;;;6.97;1.75;;;7.90;99.90;;;;;;5054291;28;20040;-80
2022/10/03 04:11:20;;;;;;;8.27;1.98;;;7.90;99.90;;;;;;5054047;28;20060;-80
2022/10/03 04:14:10;;;;;;;11.50;2.22;;;7.90;99.90;;;;;;5053985;28;20045;-80
2022/10/03 04:19:59;;;;;;;9.27;2.03;;;8.00;99.90;;;;;;5054294;28;20048;-80
2022/10/03 04:22:29;;;;;;;7.47;1.95;;;7.80;99.90;;;;;;5054007;28;20076;-80
2022/10/03 04:24:57;;;;;;;7.63;1.88;;;8.00;99.90;;;;;;5054357;28;20408;-80
2022/10/03 04:27:29;;;;;;;9.45;2.00;;;8.00;99.90;;;;;;5069626;28;20501;-80
2022/10/03 04:30:03;;;;;;;7.45;2.15;;;8.00;99.90;;;;;;5053953;28;20167;-80
2022/10/03 04:32:33;;;;;;;9.02;2.20;;;8.00;99.90;;;;;;5053904;28;20051;-80
2022/10/03 04:35:40;;;;;;;9.55;2.45;;;8.00;99.90;;;;;;5053824;28;20052;-80
2022/10/03 04:38:28;;;;;;;6.35;1.83;;;8.00;99.90;;;;;;5053808;28;20049;-80
2022/10/03 04:41:34;;;;;;;8.63;2.00;;;8.00;99.90;;;;;;5053499;28;20045;-80
2022/10/03 04:44:15;;;;;;;7.07;2.20;;;7.90;99.90;;;;;;5054022;28;20048;-80
2022/10/03 04:46:53;;;;;;;7.68;1.83;;;8.00;99.90;;;;;;5053847;28;20049;-80
2022/10/03 04:49:28;;;;;;;9.70;2.38;;;8.00;99.90;;;;;;5053343;28;20056;-79
2022/10/03 04:52:16;;;;;;;11.57;2.00;;;8.00;99.90;;;;;;5053409;28;20481;-80
2022/10/03 04:55:05;;;;;;;12.07;2.30;;;7.90;99.90;;;;;;5053670;28;20081;-80
2022/10/03 04:57:44;;;;;;;12.30;1.75;;;7.90;99.90;;;;;;5053626;28;20124;-79
2022/10/03 05:00:28;;;;;;;7.13;1.98;;;7.90;99.90;;;;;;5053307;28;20493;-80
2022/10/03 05:03:04;;;;;;;8.18;2.20;;;7.90;99.90;;;;;;5053488;28;20480;-80
2022/10/03 05:05:50;;;;;;;21.58;2.47;;;7.90;99.90;;;;;;5053738;28;20049;-80
2022/10/03 05:08:41;;;;;;;10.18;2.30;;;7.80;99.90;;;;;;5069196;28;20405;-79
2022/10/03 05:11:24;;;;;;;7.22;1.98;;;7.80;99.90;;;;;;5053860;28;20084;-80
2022/10/03 05:13:59;;;;;;;11.98;2.63;;;7.80;99.90;;;;;;5053462;28;20092;-80
2022/10/03 05:16:30;;;;;;;11.73;1.83;;;7.80;99.90;;;;;;5053392;28;20087;-80
2022/10/03 05:19:02;;;;;;;19.90;2.90;;;;;;;;;;5053022;28;20488;-79
2022/10/03 05:21:40;;;;;;;5.18;1.58;;;7.70;99.90;;;;;;5052981;28;20477;-80
2022/10/03 05:24:25;;;;;;;7.97;2.00;;;7.70;99.90;;;;;;5053256;28;20084;-79
2022/10/03 05:27:02;;;;;;;6.45;1.77;;;7.80;99.90;;;;;;5052310;28;20048;-80
2022/10/03 05:29:42;;;;;;;7.15;1.58;;;7.60;99.90;;;;;;5053981;28;20081;-80
2022/10/03 05:32:36;;;;;;;5.55;2.10;;;7.70;99.90;;;;;;5053282;28;20075;-80
2022/10/03 05:35:26;;;;;;;7.18;1.90;;;7.60;99.90;;;;;;5053320;28;20053;-80
2022/10/03 05:37:57;;;;;;;10.15;2.08;;;7.50;99.90;;;;;;5053195;28;20469;-81
2022/10/03 05:40:28;;;;;;;4.85;1.75;;;7.50;99.90;;;;;;5068605;28;20040;-80
2022/10/03 05:43:25;;;;;;;7.80;1.85;;;7.50;99.90;;;;;;5053026;28;20095;-80
2022/10/03 05:46:29;;;;;;;14.63;2.10;;;7.50;99.90;;;;;;5053098;28;20057;-82
2022/10/03 05:49:22;;;;;;;7.28;2.20;;;7.40;99.90;;;;;;5052683;28;20132;-80
2022/10/03 05:51:48;;;;;;;5.75;1.83;;;7.40;99.90;;;;;;5053144;28;20048;-81
2022/10/03 05:54:48;;;;;;;11.35;2.38;;;7.40;99.90;;;;;;5051986;28;20135;-83
2022/10/03 05:57:26;;;;;;;4.18;2.22;;;7.30;99.90;;;;;;5052348;28;20056;-82
2022/10/03 06:00:17;;;;;;;5.50;2.08;;;7.30;99.90;;;;;;5053020;28;20051;-82
2022/10/03 06:02:53;;;;;;;8.27;1.92;;;7.30;99.90;;;;;;5055399;28;20405;-81
2022/10/03 06:05:36;;;;;;;9.85;2.17;;;7.30;99.90;;;;;;5055489;28;20045;-82
2022/10/03 06:08:29;;;;;;;6.65;2.28;;;7.30;99.90;;;;;;5056872;28;20049;-85
2022/10/03 06:11:30;;;;;;;8.95;2.47;;;7.40;99.90;;;;;;5056369;28;20053;-82
2022/10/03 06:14:23;;;;;;;6.03;2.33;;;7.40;99.90;;;;;;5055067;28;20041;-85
2022/10/03 06:17:27;;;;;;;7.15;2.45;;;7.40;99.90;;;;;;5055546;28;20091;-83
2022/10/03 06:20:22;;;;;;;6.05;1.98;;;7.40;99.90;;;;;;5055768;28;20084;-85
2022/10/03 06:23:22;;;;;;;5.20;2.47;;;7.40;99.90;;;;;;5055318;28;20048;-79
2022/10/03 06:25:51;;;;;;;4.72;2.00;;;7.40;99.90;;;;;;5056529;28;20041;-80
2022/10/03 06:28:35;;;;;;;7.88;1.90;;;7.40;99.90;;;;;;5056193;28;20103;-77
2022/10/03 06:31:20;;;;;;;14.05;2.58;;;7.40;99.90;;;;;;5056209;28;20098;-76
2022/10/03 06:34:07;;;;;;;7.43;2.78;;;7.40;99.90;;;;;;5056166;28;20096;-78
2022/10/03 06:36:47;;;;;;;9.00;2.33;;;7.30;99.90;;;;;;5056069;28;20041;-78
2022/10/03 06:39:43;;;;;;;8.10;2.60;;;7.30;99.90;;;;;;5056310;28;20049;-79
2022/10/03 06:42:44;;;;;;;6.13;2.55;;;7.30;99.90;;;;;;5055896;28;20527;-77
2022/10/03 06:45:27;;;;;;;6.45;2.10;;;7.40;99.90;;;;;;5055933;28;20102;-77
2022/10/03 06:48:12;;;;;;;8.50;2.92;;;7.50;99.90;;;;;;5056067;28;20041;-77
2022/10/03 06:50:52;;;;;;;8.15;2.63;;;7.50;99.90;;;;;;5055481;28;20437;-77
2022/10/03 06:53:35;;;;;;;10.07;2.45;;;7.60;99.90;;;;;;5053718;28;20041;-77
2022/10/03 06:56:22;;;;;;;8.82;2.83;;;7.60;99.90;;;;;;5054708;28;20392;-77
2022/10/03 06:59:15;;;;;;;7.78;3.03;;;7.70;99.90;;;;;;5053710;28;20037;-77
2022/10/03 07:02:21;;;;;;;7.93;2.58;;;7.70;99.90;;;;;;5054518;28;20051;-77
2022/10/03 07:04:49;;;;;;;5.18;2.22;;;7.80;99.90;;;;;;5055578;28;20045;-77
2022/10/03 07:07:31;;;;;;;9.02;2.88;;;7.90;99.90;;;;;;5055438;28;20040;-77
2022/10/03 07:10:00;;;;;;;6.53;2.65;;;8.10;99.90;;;;;;5055562;28;20539;-77
2022/10/03 07:12:32;;;;;;;10.57;2.97;;;8.20;99.90;;;;;;5070891;28;20052;-77
2022/10/03 07:15:13;;;;;;;8.63;2.85;;;8.40;99.90;;;;;;5055366;28;20137;-77
2022/10/03 07:17:48;;;;;;;9.38;3.00;;;8.50;99.90;;;;;;5054395;28;20045;-77
2022/10/03 07:20:25;;;;;;;9.45;2.35;;;8.70;99.90;;;;;;5055685;28;20147;-78
2022/10/03 07:23:12;;;;;;;6.15;2.35;;;8.90;99.90;;;;;;5055500;28;20080;-78
2022/10/03 07:26:19;;;;;;;10.73;2.90;;;9.00;99.90;;;;;;5055648;28;20092;-77
2022/10/03 07:29:06;;;;;;;12.65;2.53;;;9.20;99.90;;;;;;5047483;28;20140;-77
2022/10/03 07:31:51;;;;;;;13.82;3.25;;;9.50;99.90;;;;;;5055038;28;20049;-77
2022/10/03 07:35:07;;;;;;;9.90;2.83;;;9.60;99.90;;;;;;5055076;28;20051;-77
2022/10/03 07:41:16;;;;;;;16.73;3.35;;;9.90;99.90;;;;;;5064215;28;20479;-80
2022/10/03 07:44:09;;;;;;;8.32;2.33;;;10.10;99.90;;;;;;5073450;28;20041;-76
2022/10/03 07:46:56;;;;;;;7.18;2.33;;;10.20;99.90;;;;;;5074584;28;20507;-77
2022/10/03 07:49:35;;;;;;;8.80;2.47;;;10.30;99.90;;;;;;5074704;28;20127;-77
2022/10/03 07:52:22;;;;;;;8.75;2.70;;;10.50;99.90;;;;;;5074627;28;20045;-76
2022/10/03 07:55:22;;;;;;;6.90;2.53;;;10.60;99.90;;;;;;5074509;28;20079;-80
2022/10/03 07:58:25;;;;;;;10.10;2.30;;;10.70;99.90;;;;;;5074530;28;20059;-78
2022/10/03 08:01:31;;;;;;;8.43;2.67;;;10.80;99.90;;;;;;5073921;28;20492;-76
2022/10/03 08:04:20;;;;;;;9.15;2.33;;;10.90;99.90;;;;;;5062438;28;20048;-76
2022/10/03 08:07:03;;;;;;;7.07;1.92;;;11.00;99.90;;;;;;5074275;28;20045;-77
2022/10/03 08:09:59;;;;;;;6.75;1.88;;;11.20;99.90;;;;;;5074116;28;20044;-76
2022/10/03 08:13:02;;;;;;;9.98;2.40;;;11.30;99.90;;;;;;5073587;28;20780;-77
2022/10/03 08:15:39;;;;;;;7.85;2.03;;;11.30;99.90;;;;;;5074386;28;20036;-77
2022/10/03 08:18:31;;;;;;;6.57;1.77;;;11.40;99.90;;;;;;5074234;28;20443;-78
2022/10/03 08:21:02;;;;;;;6.40;1.92;;;11.60;99.90;;;;;;5074539;28;20080;-78
2022/10/03 08:23:50;;;;;;;7.63;2.55;;;11.70;99.90;;;;;;5074450;28;20457;-76
2022/10/03 08:26:33;;;;;;;9.55;2.50;;;11.80;99.90;;;;;;5073500;28;20045;-76
2022/10/03 08:29:09;;;;;;;7.70;2.13;;;12.50;99.90;;;;;;5073928;28;20412;-77
2022/10/03 08:32:10;;;;;;;8.95;2.53;;;12.10;99.90;;;;;;5074179;28;20036;-77
2022/10/03 08:34:44;;;;;;;10.48;1.88;;;12.20;99.90;;;;;;5073782;28;20056;-78
2022/10/03 08:37:30;;;;;;;8.30;2.03;;;12.30;99.90;;;;;;5073541;28;20044;-79
2022/10/03 08:40:33;;;;;;;6.13;1.67;;;12.50;99.90;;;;;;5073944;28;20055;-77
2022/10/03 08:43:23;;;;;;;9.52;2.38;;;12.60;99.90;;;;;;5057191;28;20063;-78
2022/10/03 08:46:12;;;;;;;10.13;1.75;;;12.70;99.90;;;;;;5074250;28;20123;-78
2022/10/03 08:49:21;;;;;;;10.95;1.95;;;12.90;99.90;;;;;;5073773;28;20052;-78
2022/10/03 08:51:52;;;;;;;6.05;1.70;;;13.00;99.90;;;;;;5072522;28;20076;-77
2022/10/03 08:54:27;;;;;;;6.93;1.60;;;13.10;99.90;;;;;;5073712;28;20037;-77
2022/10/03 08:56:56;;;;;;;7.35;1.50;;;13.20;99.90;;;;;;5073647;28;20040;-77
2022/10/03 08:59:59;;;;;;;6.72;1.90;;;13.40;99.90;;;;;;5072575;28;20480;-78
2022/10/03 09:02:42;;;;;;;7.95;1.85;;;13.50;99.90;;;;;;5073475;28;20045;-77
2022/10/03 09:05:46;;;;;;;8.40;1.88;;;13.60;99.90;;;;;;5073944;28;20055;-77
2022/10/03 09:08:27;;;;;;;5.43;1.58;;;13.70;99.90;;;;;;5073698;28;20127;-77
2022/10/03 09:11:24;;;;;;;9.25;1.40;;;13.90;99.90;;;;;;5073625;28;20535;-79
2022/10/03 09:14:34;;;;;;;10.43;1.60;;;14.00;99.90;;;;;;5073489;28;20041;-76
2022/10/03 09:17:23;;;;;;;10.43;1.88;;;14.10;99.90;;;;;;5064401;28;20048;-77
2022/10/03 09:19:59;;;;;;;5.43;1.67;;;14.30;99.90;;;;;;5072412;28;20416;-77
2022/10/03 09:22:46;;;;;;;7.60;2.00;;;14.40;99.90;;;;;;5071767;28;20052;-77
2022/10/03 09:25:18;;;;;;;9.65;2.00;;;14.40;99.90;;;;;;5072876;28;20142;-77
2022/10/03 09:28:02;;;;;;;7.32;1.60;;;14.50;99.90;;;;;;5073055;28;20061;-78
2022/10/03 09:30:52;;;;;;;7.93;1.70;;;14.40;99.90;;;;;;5073134;28;20051;-77
2022/10/03 09:33:46;;;;;;;10.85;1.80;;;14.60;99.90;;;;;;5073144;28;20037;-79
2022/10/03 09:36:26;;;;;;;6.78;1.65;;;14.70;99.90;;;;;;5074593;28;20396;-78
2022/10/03 09:39:13;;;;;;;9.52;2.13;;;14.80;99.90;;;;;;5077122;28;20450;-77
2022/10/03 09:42:08;;;;;;;7.35;1.60;;;14.90;99.90;;;;;;5076714;28;20056;-78
2022/10/03 09:44:48;;;;;;;5.97;1.90;;;15.10;99.90;;;;;;5076946;28;20037;-77
2022/10/03 09:47:23;;;;;;;5.82;1.38;;;15.20;99.90;;;;;;5076835;28;20071;-78
2022/10/03 09:50:07;;;;;;;12.88;2.00;;;15.20;99.90;;;;;;5076640;28;20084;-77
2022/10/03 09:53:01;;;;;;;6.43;1.67;;;15.30;99.90;;;;;;5076304;28;20059;-77
2022/10/03 09:56:03;;;;;;;7.53;1.73;;;15.40;99.90;;;;;;5076481;28;20395;-78
2022/10/03 09:58:47;;;;;;;6.30;1.30;;;15.40;99.90;;;;;;5076707;28;20135;-78
2022/10/03 10:01:22;;;;;;;7.47;1.73;;;15.50;99.90;;;;;;5076476;28;20086;-77
2022/10/03 10:03:53;;;;;;;6.63;1.55;;;15.60;99.90;;;;;;5076557;28;20040;-78
2022/10/03 10:06:25;;;;;;;7.22;1.50;;;15.80;99.90;;;;;;5076100;28;20416;-78
2022/10/03 10:08:53;;;;;;;8.85;2.30;;;15.80;99.90;;;;;;5076218;28;20047;-76
2022/10/03 10:11:31;;;;;;;6.70;1.95;;;15.70;99.90;;;;;;5075960;28;20098;-78
2022/10/03 10:14:09;;;;;;;;;;;15.70;99.90;;;;;;5076753;28;20040;-78
2022/10/03 10:16:49;;;;;;;12.52;1.95;;;15.70;99.90;;;;;;5076353;28;19921;-77
2022/10/03 10:19:23;;;;;;;10.15;1.60;;;15.70;99.90;;;;;;5076427;28;20055;-77
2022/10/03 10:22:27;;;;;;;6.00;1.30;;;15.80;99.90;;;;;;5075675;28;20052;-77
2022/10/03 10:25:24;;;;;;;7.97;1.50;;;16.00;99.90;;;;;;5075814;28;20117;-77
2022/10/03 10:27:58;;;;;;;6.43;1.52;;;16.10;99.90;;;;;;5074252;28;20052;-78
2022/10/03 10:31:09;;;;;;;6.72;1.70;;;16.10;99.90;;;;;;5075894;28;20142;-77
2022/10/03 10:34:12;;;;;;;8.68;1.65;;;16.30;99.90;;;;;;5076039;28;20063;-78
2022/10/03 10:37:11;;;;;;;4.75;1.27;;;16.30;99.90;;;;;;5075810;28;20131;-78
2022/10/03 10:39:55;;;;;;;5.82;1.60;;;16.40;99.90;;;;;;5075786;28;20445;-77
2022/10/03 10:42:40;;;;;;;7.00;1.42;;;16.50;99.90;;;;;;5074157;28;20063;-77
2022/10/03 10:45:16;;;;;;;7.10;1.40;;;16.40;99.90;;;;;;5075962;28;20109;-76
2022/10/03 10:48:07;;;;;;;7.13;1.57;;;16.50;99.90;;;;;;5075108;28;20041;-79
2022/10/03 10:50:51;;;;;;;8.05;1.67;;;16.50;99.90;;;;;;5075613;28;20055;-79
2022/10/03 10:53:54;;;;;;;7.05;1.80;;;16.50;99.90;;;;;;5075340;28;20070;-79
2022/10/03 10:56:53;;;;;;;12.50;1.88;;;16.50;99.90;;;;;;5075447;28;20048;-79
2022/10/03 10:59:56;;;;;;;3.70;1.00;;;16.60;99.90;;;;;;5074125;28;20053;-80
2022/10/03 11:02:57;;;;;;;6.63;1.60;;;16.50;99.90;;;;;;5075378;28;20388;-80
2022/10/03 11:05:41;;;;;;;9.50;1.92;;;16.50;99.90;;;;;;5075394;28;20044;-79
2022/10/03 11:08:53;;;;;;;5.53;1.50;;;16.50;99.90;;;;;;5073979;28;20123;-79
2022/10/03 11:11:34;;;;;;;5.93;1.60;;;16.50;99.90;;;;;;5075161;28;20055;-79
2022/10/03 11:14:25;;;;;;;6.38;1.20;;;16.50;99.90;;;;;;5074666;28;20149;-79
2022/10/03 11:17:17;;;;;;;7.50;1.60;;;16.50;99.90;;;;;;5075006;28;20048;-81
2022/10/03 11:20:10;;;;;;;9.15;1.55;;;16.60;99.90;;;;;;5075215;28;20048;-81
2022/10/03 11:23:17;;;;;;;5.32;1.40;;;16.70;99.90;;;;;;5074579;28;20055;-81
2022/10/03 11:25:52;;;;;;;4.38;1.13;;;16.80;99.90;;;;;;5071512;28;20055;-79
2022/10/03 11:28:20;;;;;;;6.03;1.80;;;16.90;99.90;;;;;;5074681;28;20136;-79
2022/10/03 11:31:08;;;;;;;6.15;1.30;;;16.90;99.90;;;;;;5073348;28;20044;-81
2022/10/03 11:34:16;;;;;;;5.93;1.17;;;16.90;99.90;;;;;;5074806;28;20178;-78
2022/10/03 11:37:19;;;;;;;4.63;1.30;;;17.10;99.90;;;;;;5074269;28;20040;-78
2022/10/03 11:40:00;;;;;;;4.38;1.20;;;17.20;99.90;;;;;;5062159;28;20488;-79
2022/10/03 11:42:27;;;;;;;6.57;1.40;;;17.20;99.90;;;;;;5074321;28;20135;-79
2022/10/03 11:45:05;;;;;;;8.10;1.50;;;17.30;99.90;;;;;;5074474;28;20057;-80
2022/10/03 11:47:51;;;;;;;6.28;1.15;;;17.50;99.90;;;;;;5074279;28;20446;-81
2022/10/03 11:51:02;;;;;;;3.53;1.40;;;17.60;99.90;;;;;;5074519;28;20044;-79
2022/10/03 11:53:40;;;;;;;2.85;1.00;;;17.60;99.90;;;;;;5071893;28;20052;-79
2022/10/03 11:56:23;;;;;;;5.55;0.95;;;17.60;99.90;;;;;;5073122;28;20059;-83
2022/10/03 11:59:17;;;;;;;5.13;1.20;;;17.60;99.90;;;;;;5074019;28;20045;-83
2022/10/03 12:02:11;;;;;;;2.95;0.93;;;17.70;99.90;;;;;;5073860;28;20055;-78
2022/10/03 12:05:10;;;;;;;5.65;1.30;;;17.60;99.90;;;;;;5073929;28;20039;-79
2022/10/03 12:09:00;;;;;;;5.00;1.30;;;17.50;99.90;;;;;;5044718;28;20397;-78
2022/10/03 12:11:31;;;;;;;5.80;1.50;;;17.40;99.90;;;;;;5070803;28;20057;-78
2022/10/03 12:14:29;;;;;;;6.15;1.00;;;17.40;99.90;;;;;;5073919;28;20396;-78
2022/10/03 12:17:25;;;;;;;5.03;1.33;;;17.40;99.90;;;;;;5073985;28;20053;-79
2022/10/03 12:20:17;;;;;;;6.25;1.20;;;17.40;99.90;;;;;;5071954;28;20468;-79
2022/10/03 12:23:16;;;;;;;9.27;1.50;;;17.30;99.90;;;;;;5072384;28;20037;-79
2022/10/03 12:25:44;;;;;;;6.35;1.30;;;17.40;99.90;;;;;;5073770;28;20086;-78
2022/10/03 12:28:23;;;;;;;5.75;1.15;;;17.40;99.90;;;;;;5073918;28;20052;-78
2022/10/03 12:31:19;;;;;;;5.07;1.13;;;17.60;99.90;;;;;;5073652;28;20052;-79
2022/10/03 12:33:56;;;;;;;7.97;1.40;;;17.70;99.90;;;;;;5073497;28;20036;-78
2022/10/03 12:36:47;;;;;;;5.25;1.10;;;17.80;99.90;;;;;;5073448;28;20479;-80
2022/10/03 12:39:25;;;;;;;5.40;1.17;;;17.80;99.90;;;;;;5073689;28;20041;-79
2022/10/03 12:42:13;;;;;;;4.10;1.20;;;17.90;99.90;;;;;;5073168;28;20138;-80
2022/10/03 12:45:08;;;;;;;4.60;1.10;;;17.80;99.90;;;;;;5073637;28;20045;-80
2022/10/03 12:47:33;;;;;;;7.13;1.75;;;17.80;99.90;;;;;;5073383;28;20174;-79
2022/10/03 12:50:32;;;;;;;5.20;1.30;;;17.90;99.90;;;;;;5073323;28;20135;-79
2022/10/03 12:53:07;;;;;;;;;;;17.90;99.90;;;;;;5073997;28;20081;-79
2022/10/03 12:55:36;;;;;;;4.32;1.20;;;18.00;99.90;;;;;;5072339;28;19970;-79
2022/10/03 12:58:17;;;;;;;5.75;1.25;;;18.10;99.90;;;;;;5073139;28;20091;-79
2022/10/03 13:01:15;;;;;;;4.28;1.08;;;18.20;99.90;;;;;;5072932;28;20524;-79
2022/10/03 13:03:54;;;;;;;5.60;1.20;;;18.20;99.90;;;;;;5073207;28;20127;-80
2022/10/03 13:06:34;;;;;;;4.40;1.10;;;18.20;99.90;;;;;;5073456;28;20091;-79
2022/10/03 13:09:05;;;;;;;4.60;1.13;;;18.20;99.90;;;;;;5072071;28;20059;-80
2022/10/03 13:11:55;;;;;;;7.28;1.35;;;18.20;99.90;;;;;;5075420;28;20052;-80
2022/10/03 13:15:06;;;;;;;3.00;1.00;;;18.20;99.90;;;;;;5077455;28;20067;-80
2022/10/03 13:17:54;;;;;;;6.45;1.33;;;18.10;99.90;;;;;;5077060;28;20072;-79
2022/10/03 13:20:42;;;;;;;5.85;1.20;;;18.10;99.90;;;;;;5077278;28;20059;-79
2022/10/03 13:23:22;;;;;;;3.35;1.08;;;17.90;99.90;;;;;;5077258;28;20426;-80
2022/10/03 13:26:10;;;;;;;6.97;1.67;;;18.00;99.90;;;;;;5077115;28;20045;-79
2022/10/03 13:29:12;;;;;;;5.70;1.73;;;17.90;99.90;;;;;;5077178;28;20037;-79
2022/10/03 13:32:06;;;;;;;2.72;1.00;;;17.90;99.90;;;;;;5077202;28;20048;-79
2022/10/03 13:34:55;;;;;;;4.20;1.20;;;17.90;99.90;;;;;;5076933;28;20094;-77
2022/10/03 13:37:47;;;;;;;3.60;1.08;;;18.00;99.90;;;;;;5076258;28;20068;-77
2022/10/03 13:40:16;;;;;;;4.18;1.30;;;18.00;99.90;;;;;;5076106;28;20041;-78
2022/10/03 13:42:46;;;;;;;4.78;1.05;;;18.00;99.90;;;;;;5076039;28;20052;-79
2022/10/03 13:45:16;;;;;;;6.35;1.40;;;17.90;99.90;;;;;;5075006;28;20044;-78
2022/10/03 13:47:57;;;;;;;6.10;1.45;;;17.90;99.90;;;;;;5076433;28;20029;-79
2022/10/03 13:50:35;;;;;;;6.47;1.23;;;17.90;99.90;;;;;;5075896;28;20473;-80
2022/10/03 13:53:10;;;;;;;5.10;1.30;;;17.90;99.90;;;;;;5074297;28;20174;-78
2022/10/03 13:55:54;;;;;;;3.75;1.27;;;17.80;99.90;;;;;;5073495;28;20472;-79
2022/10/03 13:58:50;;;;;;;4.05;1.05;;;17.80;99.90;;;;;;5074241;28;20052;-78
2022/10/03 14:01:28;;;;;;;6.93;1.10;;;17.80;99.90;;;;;;5073101;28;20508;-77
2022/10/03 14:04:16;;;;;;;7.35;1.67;;;17.70;99.90;;;;;;5073584;28;20044;-79
2022/10/03 14:07:02;;;;;;;5.28;1.35;;;17.70;99.90;;;;;;5074449;28;20494;-79
2022/10/03 14:09:34;;;;;;;4.40;1.30;;;17.70;99.90;;;;;;5076488;28;20488;-81
2022/10/03 14:12:04;;;;;;;4.43;1.30;;;17.70;99.90;;;;;;5076314;28;20060;-82
2022/10/03 14:14:59;;;;;;;5.25;1.27;;;17.80;99.90;;;;;;5076345;28;20048;-81
2022/10/03 14:17:56;;;;;;;7.70;1.40;;;17.80;99.90;;;;;;5074617;28;20049;-79
2022/10/03 14:20:58;;;;;;;4.20;1.10;;;17.80;99.90;;;;;;5076103;28;20094;-80
2022/10/03 14:23:29;;;;;;;4.30;1.15;;;17.80;99.90;;;;;;5074713;28;20041;-80
2022/10/03 14:26:14;;;;;;;6.45;1.08;;;17.70;99.90;;;;;;5074872;28;20044;-81
2022/10/03 14:28:46;;;;;;;7.00;1.42;;;17.70;99.90;;;;;;5076032;28;20044;-79
2022/10/03 14:31:30;;;;;;;5.00;1.13;;;17.70;99.90;;;;;;5076072;28;20041;-81
2022/10/03 14:34:06;;;;;;;7.85;1.65;;;17.60;99.90;;;;;;5076097;28;20048;-82
2022/10/03 14:36:55;;;;;;;4.38;1.48;;;17.50;99.90;;;;;;5076026;28;20051;-80
2022/10/03 14:39:51;;;;;;;5.97;1.40;;;17.50;99.90;;;;;;5076334;28;20053;-82
2022/10/03 14:42:33;;;;;;;4.78;1.30;;;17.50;99.90;;;;;;5075584;28;20053;-80